Eastover, South Carolina
Current Conditions -  °F | °C
As of 12:58 AM on Saturday 20 Dec 2014 (Local Time) from KMMT Reporting Station
Clear Clear  
Wind Chill: 47°   Ceiling: Unl
Heat Index: 47°   Visibility: 10mi
Dew Point: 36°   Wind: 2mph
Humidity: 64%   Direction: 130°SE
Pressure: 30.17"   Gusts: NA
Location:  33.88°N, 80.69°W
Report Text: KMMT 200558Z AUTO 13002KT 10SM CLR 08/02 A3017 RMK AO2 SLP219 T00840020 10100 20083 50006
Loading
Personal Weather Stations






























Interactive Weather Map New forecast layout! Learn more

10-Day Weather Forecast

Advertisements
Track Severe Weather on mobile